Time;durP1;ratioP1;P1;durP2;ratioP2;P2;SDS_P1;SDS_P2;PMS_P1;PMS_P2;Temp;Humidity;BMP_temperature;BMP_pressure;BME280_temperature;BME280_humidity;BME280_pressure;Samples;Min_cycle;Max_cycle;Signal;HPM_P1;HPM_P2
2021/03/12 00:04:47;;;;;;;17.60;12.40;;;;;;;6.94;58.83;97694.51;252047;1147;114611;-69
2021/03/12 00:09:50;;;;;;;18.93;12.13;;;;;;;7.11;58.20;97688.89;251903;1154;114755;-70
2021/03/12 00:14:52;;;;;;;17.25;11.80;;;;;;;7.23;58.66;97710.98;251660;1146;114401;-70
2021/03/12 00:19:55;;;;;;;17.73;11.13;;;;;;;7.34;58.32;97705.81;251874;1147;114505;-70
2021/03/12 00:24:59;;;;;;;15.55;10.25;;;;;;;7.49;58.09;97698.57;251696;1147;115557;-70
2021/03/12 00:30:05;;;;;;;13.23;9.23;;;;;;;7.66;58.13;97707.96;251828;1154;114634;-71
2021/03/12 00:35:07;;;;;;;14.50;9.80;;;;;;;7.78;58.63;97720.33;251900;1146;114301;-70
2021/03/12 00:40:14;;;;;;;14.50;9.43;;;;;;;7.91;58.26;97737.97;251915;1154;114989;-71
2021/03/12 00:45:18;;;;;;;13.90;9.20;;;;;;;7.98;57.69;97747.16;251699;1146;114635;-72
2021/03/12 00:50:29;;;;;;;14.47;9.87;;;;;;;8.05;57.17;97745.79;251768;1154;114594;-74
2021/03/12 00:55:34;;;;;;;11.80;8.53;;;;;;;8.09;57.40;97736.66;251789;1148;115220;-72
2021/03/12 01:00:43;;;;;;;12.20;8.50;;;;;;;8.10;57.63;97745.44;251890;1147;114355;-75
2021/03/12 01:05:47;;;;;;;11.88;8.95;;;;;;;8.09;58.03;97739.30;251858;1148;114887;-82
2021/03/12 01:10:54;;;;;;;14.00;9.33;;;;;;;8.10;58.38;97729.55;251799;1147;114390;-77
2021/03/12 01:15:57;;;;;;;15.03;9.27;;;;;;;8.01;58.07;97737.19;251705;1148;114471;-78
2021/03/12 01:21:07;;;;;;;12.28;8.83;;;;;;;7.93;58.29;97730.77;251950;1153;114405;-71
2021/03/12 01:26:10;;;;;;;11.55;7.48;;;;;;;7.90;59.24;97713.29;251748;1148;115539;-73
2021/03/12 01:31:28;;;;;;;10.73;7.07;;;;;;;7.89;59.17;97702.82;251561;1148;115108;-75
2021/03/12 01:36:41;;;;;;;10.27;7.63;;;;;;;7.90;59.29;97701.85;251433;1148;114661;-75
2021/03/12 01:41:44;;;;;;;10.43;7.33;;;;;;;7.89;59.28;97693.06;251551;1147;115592;-73
2021/03/12 01:47:42;;;;;;;8.45;6.73;;;;;;;7.89;59.51;97695.72;251639;1148;114902;-76
2021/03/12 01:52:55;;;;;;;12.07;7.50;;;;;;;7.85;59.39;97690.77;251568;1148;114894;-69
2021/03/12 01:57:58;;;;;;;9.65;6.80;;;;;;;7.81;59.75;97704.22;251706;1154;114363;-71
2021/03/12 02:03:09;;;;;;;9.78;6.80;;;;;;;7.72;59.95;97712.82;251619;1147;114672;-71
2021/03/12 02:08:31;;;;;;;9.40;7.23;;;;;;;7.62;59.38;97708.30;251787;1154;115028;-74
2021/03/12 02:13:53;;;;;;;9.03;6.85;;;;;;;7.55;60.32;97697.30;251616;1147;114898;-74
2021/03/12 02:20:00;;;;;;;11.40;7.50;;;;;;;7.53;60.74;97723.02;251678;1148;114231;-73
2021/03/12 02:25:23;;;;;;;8.10;6.70;;;;;;;7.54;60.88;97740.59;251261;1149;114779;-75
2021/03/12 02:30:36;;;;;;;7.90;6.70;;;;;;;7.57;60.44;97720.07;251860;1154;115547;-75
2021/03/12 02:35:40;;;;;;;9.80;7.03;;;;;;;7.62;60.71;97722.38;251749;1147;114312;-77
2021/03/12 02:40:59;;;;;;;9.50;6.05;;;;;;;7.58;60.85;97727.05;251622;1149;114675;-79
2021/03/12 02:46:13;;;;;;;8.45;5.60;;;;;;;7.56;61.05;97714.87;251816;1148;115121;-74
2021/03/12 02:51:17;;;;;;;6.45;5.45;;;;;;;7.55;61.03;97699.95;251576;1147;114686;-77
2021/03/12 02:56:30;;;;;;;8.05;5.10;;;;;;;7.49;60.68;97730.34;250012;1147;115341;-75
2021/03/12 03:01:33;;;;;;;5.65;4.40;;;;;;;7.44;60.37;97708.66;251765;1154;114200;-78
2021/03/12 03:06:50;;;;;;;7.55;5.15;;;;;;;7.42;60.92;97701.77;250383;1148;114206;-81
2021/03/12 03:11:57;;;;;;;6.58;4.98;;;;;;;7.37;60.94;97686.23;249330;1149;114143;-84
2021/03/12 03:17:08;;;;;;;6.93;5.43;;;;;;;7.38;60.83;97666.73;248461;1148;115087;-80
2021/03/12 03:22:19;;;;;;;7.60;5.97;;;;;;;7.40;61.36;97674.55;251590;1149;115141;-76
2021/03/12 03:27:29;;;;;;;8.77;5.90;;;;;;;7.40;60.97;97709.80;251617;1147;114378;-75
2021/03/12 03:32:32;;;;;;;8.33;5.50;;;;;;;7.42;60.98;97707.06;251691;1154;114448;-74
2021/03/12 03:37:41;;;;;;;;;;;;;;;7.44;61.05;97702.48;251402;1148;114797;-77
2021/03/12 03:42:47;;;;;;;6.10;5.10;;;;;;;7.41;61.05;97690.34;251785;1147;101815;-70
2021/03/12 03:47:51;;;;;;;7.47;5.83;;;;;;;7.37;60.41;97698.59;251720;1147;114427;-70
2021/03/12 03:52:54;;;;;;;11.80;7.20;;;;;;;7.34;60.57;97689.09;251661;1147;114321;-69
2021/03/12 03:57:58;;;;;;;7.45;5.05;;;;;;;7.33;61.24;97701.45;251622;1149;114558;-72
2021/03/12 04:03:06;;;;;;;7.50;4.50;;;;;;;7.31;60.90;97710.47;251771;1154;114207;-69
2021/03/12 04:08:13;;;;;;;6.50;4.38;;;;;;;7.29;60.54;97718.50;251679;1149;114117;-72
2021/03/12 04:13:17;;;;;;;5.77;4.03;;;;;;;7.26;61.08;97729.30;250816;1148;114455;-74
2021/03/12 04:18:21;;;;;;;5.00;4.10;;;;;;;7.20;61.17;97731.52;251417;1148;114404;-71
2021/03/12 04:23:24;;;;;;;5.60;4.15;;;;;;;7.17;60.32;97715.86;251697;1154;114618;-69
2021/03/12 04:28:27;;;;;;;5.90;4.60;;;;;;;7.06;60.48;97729.83;251371;1148;114637;-71
2021/03/12 04:33:30;;;;;;;6.50;5.60;;;;;;;6.97;60.42;97746.34;251777;1154;115293;-70
2021/03/12 04:38:34;;;;;;;7.60;5.55;;;;;;;6.87;60.26;97752.25;251698;1148;114404;-74
2021/03/12 04:43:40;;;;;;;7.43;4.90;;;;;;;6.81;60.60;97731.51;251843;1154;115014;-72
2021/03/12 04:48:53;;;;;;;6.60;4.75;;;;;;;6.83;60.74;97744.64;251645;1148;115183;-71
2021/03/12 04:53:58;;;;;;;6.78;5.33;;;;;;;6.93;61.48;97744.84;251585;1147;115020;-70
2021/03/12 04:59:01;;;;;;;8.70;5.20;;;;;;;6.98;61.04;97758.61;251632;1148;114779;-69
2021/03/12 05:04:07;;;;;;;7.20;5.00;;;;;;;7.02;61.49;97776.80;251567;1148;114758;-72
2021/03/12 05:09:11;;;;;;;7.03;5.40;;;;;;;7.08;61.58;97754.39;251866;1148;115189;-71
2021/03/12 05:14:16;;;;;;;8.90;5.50;;;;;;;7.11;61.03;97756.83;251507;1147;114931;-69
2021/03/12 05:19:22;;;;;;;7.20;5.10;;;;;;;7.10;61.01;97737.47;251776;1149;114794;-67
2021/03/12 05:24:28;;;;;;;9.23;5.63;;;;;;;7.04;60.91;97747.63;251652;1147;114945;-69
2021/03/12 05:29:30;;;;;;;8.80;5.90;;;;;;;6.98;61.28;97758.61;251635;1147;114590;-72
2021/03/12 05:34:42;;;;;;;12.03;6.17;;;;;;;6.90;61.27;97766.23;251620;1154;114387;-81
2021/03/12 05:39:48;;;;;;;10.57;6.23;;;;;;;6.80;60.90;97773.94;251655;1147;114563;-74
2021/03/12 05:44:57;;;;;;;10.05;6.03;;;;;;;6.77;61.21;97800.58;249961;1148;114512;-84
2021/03/12 05:50:03;;;;;;;9.90;6.00;;;;;;;6.72;61.21;97798.22;247672;1148;115890;-82
2021/03/12 05:55:06;;;;;;;13.63;6.73;;;;;;;6.70;61.33;97807.22;247635;1149;114800;-83
2021/03/12 06:00:11;;;;;;;9.83;6.13;;;;;;;6.73;60.90;97814.95;246550;1149;114900;-83
2021/03/12 06:05:25;;;;;;;10.43;6.07;;;;;;;6.78;61.85;97812.84;247617;1149;114438;-80
2021/03/12 06:10:28;;;;;;;11.08;7.03;;;;;;;6.88;61.74;97825.34;247592;1149;114667;-84
2021/03/12 06:15:38;;;;;;;11.95;7.90;;;;;;;6.99;62.09;97823.77;247200;1149;114978;-82
2021/03/12 06:20:45;;;;;;;11.27;7.23;;;;;;;7.08;61.89;97829.30;247213;1149;114752;-82
2021/03/12 06:25:52;;;;;;;12.77;7.83;;;;;;;7.15;62.27;97842.96;246890;1156;114545;-83
2021/03/12 06:31:02;;;;;;;15.10;9.00;;;;;;;7.24;62.33;97847.64;247274;1149;114829;-82
2021/03/12 06:36:30;;;;;;;14.20;8.60;;;;;;;7.31;62.44;97866.60;247491;1149;114891;-83
2021/03/12 06:41:49;;;;;;;14.00;7.85;;;;;;;7.41;62.96;97874.77;247869;1149;115046;-82
2021/03/12 06:46:57;;;;;;;12.20;8.20;;;;;;;7.54;62.31;97862.36;247697;1148;115144;-80
2021/03/12 06:52:04;;;;;;;10.77;7.00;;;;;;;7.74;62.64;97869.78;248639;1147;114946;-80
2021/03/12 06:57:20;;;;;;;14.25;7.40;;;;;;;7.96;62.68;97873.59;247033;1155;114988;-81
2021/03/12 07:02:34;;;;;;;12.35;6.55;;;;;;;8.13;62.93;97886.50;248126;1148;114979;-81
2021/03/12 07:07:39;;;;;;;12.00;6.10;;;;;;;8.30;62.39;97904.70;247623;1148;114741;-81
2021/03/12 07:12:51;;;;;;;13.65;6.80;;;;;;;8.44;61.74;97927.61;248120;1148;115137;-82
2021/03/12 07:18:05;;;;;;;8.80;5.50;;;;;;;8.56;62.12;97928.56;246711;1155;115192;-82
2021/03/12 07:23:10;;;;;;;9.45;5.30;;;;;;;8.59;61.80;97930.12;247285;1149;114495;-82
2021/03/12 07:28:20;;;;;;;10.85;4.80;;;;;;;8.59;60.99;97930.12;247960;1148;115492;-83
2021/03/12 07:33:49;;;;;;;7.33;4.67;;;;;;;8.62;60.52;97943.16;248168;1148;115020;-82
2021/03/12 07:38:56;;;;;;;7.95;4.30;;;;;;;8.63;60.63;97950.18;248695;1148;114449;-81
2021/03/12 07:44:02;;;;;;;8.30;4.80;;;;;;;8.65;60.21;97972.95;249573;1149;114078;-80
2021/03/12 07:49:27;;;;;;;;;;;;;;;8.69;60.19;97971.78;250423;1147;114319;-81
2021/03/12 07:54:36;;;;;;;9.23;4.75;;;;;;;8.75;60.64;97981.95;250799;1148;101073;-79
2021/03/12 07:59:46;;;;;;;9.05;4.85;;;;;;;8.76;60.17;97978.36;250408;1149;114538;-80
2021/03/12 08:05:45;;;;;;;8.40;4.70;;;;;;;8.78;59.73;97972.94;249047;1148;114339;-80
2021/03/12 08:11:34;;;;;;;12.15;5.20;;;;;;;8.85;60.19;97984.80;247052;1149;114314;-81
2021/03/12 08:16:58;;;;;;;11.03;4.93;;;;;;;8.87;59.86;97980.24;247519;1155;114552;-80
2021/03/12 08:22:27;;;;;;;12.60;5.30;;;;;;;8.94;59.30;97975.34;247341;1149;114735;-79
2021/03/12 08:27:56;;;;;;;12.00;4.63;;;;;;;8.99;59.15;97991.77;247281;1149;114627;-79
2021/03/12 08:33:20;;;;;;;10.05;4.55;;;;;;;9.07;59.50;97991.20;247229;1149;114652;-79
2021/03/12 08:38:41;;;;;;;10.80;4.90;;;;;;;9.14;59.09;97985.35;249663;1149;115192;-79
2021/03/12 08:44:13;;;;;;;16.10;4.73;;;;;;;9.22;59.17;97996.25;249459;1148;114317;-80
2021/03/12 08:49:34;;;;;;;19.85;4.90;;;;;;;9.37;59.08;97990.76;250132;1148;114321;-80
2021/03/12 08:55:01;;;;;;;11.75;4.55;;;;;;;9.53;58.59;98014.38;251063;1148;114965;-81
2021/03/12 09:00:09;;;;;;;13.75;3.75;;;;;;;9.59;58.46;98001.49;250952;1148;114569;-79
2021/03/12 09:05:30;;;;;;;7.65;3.65;;;;;;;9.57;58.15;98019.34;251628;1149;114972;-78
2021/03/12 09:10:56;;;;;;;8.95;3.88;;;;;;;9.53;58.05;98023.19;251544;1148;114453;-77
2021/03/12 09:16:04;;;;;;;6.50;3.25;;;;;;;9.42;57.64;98039.08;248522;1150;117825;-79
2021/03/12 09:21:22;;;;;;;7.50;2.40;;;;;;;9.28;57.38;98055.17;246541;1149;114528;-78
2021/03/12 09:26:32;;;;;;;4.80;2.20;;;;;;;9.09;57.81;98059.14;247334;1148;114486;-77
2021/03/12 09:31:41;;;;;;;5.83;2.30;;;;;;;8.90;57.74;98056.09;246940;1155;114379;-78
2021/03/12 09:36:54;;;;;;;3.60;2.30;;;;;;;8.80;57.76;98086.88;246166;1149;114465;-79
2021/03/12 09:42:11;;;;;;;6.05;2.65;;;;;;;8.70;58.17;98102.62;249057;1148;114358;-78
2021/03/12 09:47:23;;;;;;;8.40;2.90;;;;;;;8.58;58.45;98109.60;247823;1156;114522;-78
2021/03/12 09:52:34;;;;;;;6.35;2.70;;;;;;;8.46;58.33;98118.41;249758;1148;115245;-75
2021/03/12 09:57:46;;;;;;;4.60;2.30;;;;;;;8.43;59.17;98142.48;247620;1148;114396;-77
2021/03/12 10:02:56;;;;;;;3.00;2.20;;;;;;;8.40;58.54;98134.73;249229;1156;114602;-77
2021/03/12 10:08:19;;;;;;;;;;;;;;;8.40;58.67;98137.39;247088;1156;114375;-77
2021/03/12 10:13:45;;;;;;;6.05;2.10;;;;;;;8.32;59.16;98140.50;248899;1155;103190;-77
2021/03/12 10:18:58;;;;;;;5.83;2.87;;;;;;;8.24;59.78;98169.33;246303;1149;115437;-76
2021/03/12 10:24:01;;;;;;;4.25;2.80;;;;;;;8.10;60.35;98186.14;247415;1149;114581;-79
2021/03/12 10:29:04;;;;;;;5.40;2.75;;;;;;;7.89;60.08;98184.91;246483;1149;114713;-77
2021/03/12 10:34:06;;;;;;;4.57;2.13;;;;;;;7.81;60.79;98167.72;250447;1147;114567;-79
2021/03/12 10:39:08;;;;;;;2.55;1.80;;;;;;;7.86;60.46;98156.81;248225;1155;114547;-79
2021/03/12 10:44:14;;;;;;;4.03;2.43;;;;;;;8.09;60.97;98160.61;248721;1148;114587;-79
2021/03/12 10:49:29;;;;;;;4.10;2.40;;;;;;;8.42;60.88;98164.63;247179;1156;114462;-79
2021/03/12 10:54:33;;;;;;;7.70;3.70;;;;;;;8.81;61.17;98153.11;245970;1148;114372;-78
2021/03/12 10:59:57;;;;;;;9.20;4.45;;;;;;;8.93;60.66;98183.24;247477;1149;114687;-78
2021/03/12 11:05:04;;;;;;;9.20;5.10;;;;;;;8.85;60.75;98188.23;246177;1148;114354;-78
2021/03/12 11:10:18;;;;;;;7.10;4.00;;;;;;;8.71;60.57;98197.14;246143;1156;114665;-79
2021/03/12 11:15:33;;;;;;;6.55;3.30;;;;;;;8.40;59.81;98196.55;247725;1148;114882;-77
2021/03/12 11:20:58;;;;;;;6.20;3.70;;;;;;;8.18;59.66;98212.98;245578;1149;114918;-79
2021/03/12 11:26:14;;;;;;;6.10;4.03;;;;;;;7.97;60.15;98217.88;246030;1150;114580;-77
2021/03/12 11:31:20;;;;;;;10.35;4.75;;;;;;;7.87;60.72;98215.93;245578;1156;114480;-77
2021/03/12 11:36:24;;;;;;;5.80;3.50;;;;;;;7.77;61.11;98223.61;245760;1149;114802;-78
2021/03/12 11:41:47;;;;;;;8.70;3.90;;;;;;;7.77;61.49;98237.70;245695;1155;114648;-78
2021/03/12 11:47:05;;;;;;;10.45;5.10;;;;;;;7.80;61.40;98242.80;246482;1149;114895;-77
2021/03/12 11:52:13;;;;;;;9.10;5.50;;;;;;;7.89;61.92;98257.28;245810;1156;115081;-77
2021/03/12 11:57:18;;;;;;;6.40;3.60;;;;;;;7.94;61.51;98254.32;246214;1150;114598;-78
2021/03/12 12:02:21;;;;;;;5.60;3.47;;;;;;;7.83;61.73;98253.20;246721;1156;115364;-77
2021/03/12 12:07:34;;;;;;;6.65;3.30;;;;;;;7.86;61.73;98238.92;246821;1148;114667;-78
2021/03/12 12:13:07;;;;;;;3.80;2.80;;;;;;;8.09;62.85;98240.11;247072;1148;114305;-78
2021/03/12 12:18:16;;;;;;;6.15;3.70;;;;;;;8.44;62.51;98218.41;246762;1149;114330;-78
2021/03/12 12:24:02;;;;;;;5.70;3.10;;;;;;;8.71;62.70;98226.32;246915;1149;114922;-77
2021/03/12 12:29:06;;;;;;;8.73;4.07;;;;;;;8.81;61.74;98221.25;246990;1155;114708;-78
2021/03/12 12:34:10;;;;;;;6.00;3.70;;;;;;;8.83;61.66;98214.02;247356;1156;114189;-79
2021/03/12 12:39:14;;;;;;;7.20;4.40;;;;;;;8.71;61.37;98234.28;246496;1147;114536;-78
2021/03/12 12:44:20;;;;;;;8.53;5.10;;;;;;;8.69;61.43;98249.44;247777;1156;114297;-80
2021/03/12 12:49:26;;;;;;;10.60;4.85;;;;;;;8.68;61.60;98245.09;247483;1149;114389;-78
2021/03/12 12:54:29;;;;;;;6.90;4.20;;;;;;;8.69;61.34;98255.58;246545;1155;114858;-77
2021/03/12 12:59:40;;;;;;;6.95;3.85;;;;;;;8.74;61.18;98248.19;247581;1148;114258;-77
2021/03/12 13:04:44;;;;;;;6.83;4.13;;;;;;;8.80;60.28;98257.55;246820;1155;114910;-77
2021/03/12 13:09:47;;;;;;;6.75;4.30;;;;;;;8.82;60.03;98250.31;246326;1148;114229;-78
2021/03/12 13:14:54;;;;;;;9.93;4.27;;;;;;;8.91;59.35;98262.12;246607;1155;114121;-77
2021/03/12 13:20:02;;;;;;;7.75;4.13;;;;;;;9.23;59.90;98279.33;246937;1155;114926;-78
2021/03/12 13:25:13;;;;;;;9.73;5.23;;;;;;;9.55;59.54;98278.08;245916;1155;114490;-76
2021/03/12 13:30:20;;;;;;;11.77;5.73;;;;;;;10.08;59.11;98294.66;247576;1155;114579;-78
2021/03/12 13:35:25;;;;;;;8.20;4.70;;;;;;;10.48;58.32;98279.34;247923;1147;115141;-76
2021/03/12 13:40:35;;;;;;;7.87;4.17;;;;;;;10.83;57.84;98265.20;246466;1155;114496;-78
2021/03/12 13:45:40;;;;;;;8.37;4.77;;;;;;;10.74;56.47;98281.89;245465;1156;114718;-78
2021/03/12 13:50:43;;;;;;;10.33;4.37;;;;;;;10.70;56.08;98291.04;246356;1155;115012;-79
2021/03/12 13:55:48;;;;;;;8.10;4.07;;;;;;;10.46;55.89;98291.92;246136;1148;115005;-78
2021/03/12 14:00:52;;;;;;;6.90;3.53;;;;;;;10.19;55.92;98292.09;247513;1155;115830;-76
2021/03/12 14:05:57;;;;;;;10.50;4.10;;;;;;;9.99;55.64;98292.68;248309;1148;114735;-77
2021/03/12 14:11:01;;;;;;;8.50;3.60;;;;;;;9.81;55.67;98284.19;246959;1149;114702;-79
2021/03/12 14:16:05;;;;;;;13.90;3.55;;;;;;;9.66;55.61;98291.45;245673;1155;114808;-77
2021/03/12 14:21:08;;;;;;;12.55;3.90;;;;;;;9.56;55.66;98296.55;246128;1147;114676;-76
2021/03/12 14:26:11;;;;;;;7.17;3.13;;;;;;;9.43;55.44;98293.89;248091;1148;115115;-73
2021/03/12 14:31:33;;;;;;;7.00;2.50;;;;;;;9.30;55.33;98292.19;249921;1155;114362;-73
2021/03/12 14:36:38;;;;;;;6.40;2.20;;;;;;;9.26;55.44;98294.20;249430;1155;114088;-74
2021/03/12 14:41:44;;;;;;;6.60;2.50;;;;;;;9.23;55.25;98281.98;247244;1148;114308;-72
2021/03/12 14:46:49;;;;;;;8.10;3.50;;;;;;;9.27;55.15;98287.94;248105;1148;114593;-74
2021/03/12 14:51:56;;;;;;;7.40;3.20;;;;;;;9.27;55.09;98279.97;248825;1148;114260;-73
2021/03/12 14:57:00;;;;;;;11.40;3.45;;;;;;;9.28;55.00;98272.88;246991;1156;114723;-72
2021/03/12 15:02:04;;;;;;;9.23;2.97;;;;;;;9.30;55.25;98262.98;246922;1148;114683;-72
2021/03/12 15:07:08;;;;;;;8.57;3.17;;;;;;;9.30;55.07;98262.98;245778;1155;114899;-72
2021/03/12 15:12:14;;;;;;;9.13;3.33;;;;;;;9.29;54.96;98279.88;249683;1155;114328;-72
2021/03/12 15:17:18;;;;;;;10.30;3.90;;;;;;;9.29;54.53;98282.53;247200;1155;114667;-72
2021/03/12 15:22:22;;;;;;;10.07;3.43;;;;;;;9.28;54.15;98278.19;249676;1150;114372;-75
2021/03/12 15:27:25;;;;;;;12.10;3.65;;;;;;;9.30;53.97;98297.50;245512;1148;114444;-72
2021/03/12 15:32:29;;;;;;;12.40;4.10;;;;;;;9.28;54.09;98305.59;247850;1149;114537;-73
2021/03/12 15:37:32;;;;;;;8.50;4.00;;;;;;;9.28;54.04;98294.97;246806;1155;114289;-73
2021/03/12 15:42:45;;;;;;;8.85;4.00;;;;;;;9.28;53.51;98302.93;249358;1148;114430;-72
2021/03/12 15:47:49;;;;;;;9.00;3.35;;;;;;;9.31;53.51;98308.03;248242;1148;115493;-73
2021/03/12 15:52:56;;;;;;;12.63;3.97;;;;;;;9.32;53.68;98306.22;246227;1155;114057;-75
2021/03/12 15:58:08;;;;;;;10.50;3.40;;;;;;;9.36;53.17;98311.20;245392;1148;114750;-74
2021/03/12 16:03:15;;;;;;;6.27;3.37;;;;;;;9.39;52.66;98313.66;245968;1147;115455;-72
2021/03/12 16:08:28;;;;;;;9.60;3.40;;;;;;;9.38;52.79;98311.97;245685;1155;114160;-73
2021/03/12 16:13:35;;;;;;;8.15;2.70;;;;;;;9.37;52.79;98320.02;246581;1155;114028;-74
2021/03/12 16:18:44;;;;;;;9.75;3.65;;;;;;;9.33;52.39;98323.84;245680;1148;114887;-75
2021/03/12 16:24:12;;;;;;;7.35;3.60;;;;;;;9.32;52.67;98324.81;248381;1149;114546;-74
2021/03/12 16:29:42;;;;;;;13.20;4.00;;;;;;;9.29;52.44;98322.36;246061;1155;114583;-73
2021/03/12 16:34:47;;;;;;;13.55;4.30;;;;;;;9.24;52.56;98334.16;245660;1155;117305;-76
2021/03/12 16:40:06;;;;;;;17.50;4.60;;;;;;;9.20;52.55;98335.32;247973;1148;115046;-74
2021/03/12 16:45:14;;;;;;;11.40;4.55;;;;;;;9.17;52.13;98342.61;247110;1148;114563;-74
2021/03/12 16:50:21;;;;;;;12.05;4.70;;;;;;;9.11;52.37;98340.39;246510;1155;114591;-73
2021/03/12 16:55:24;;;;;;;11.60;4.57;;;;;;;9.07;51.91;98355.67;246861;1155;114686;-73
2021/03/12 17:00:31;;;;;;;12.10;4.60;;;;;;;8.99;52.09;98357.97;246194;1149;114570;-73
2021/03/12 17:05:36;;;;;;;11.90;4.65;;;;;;;8.91;51.76;98365.61;246748;1148;114568;-73
2021/03/12 17:10:45;;;;;;;12.30;4.60;;;;;;;8.84;51.85;98369.62;247103;1148;115010;-73
2021/03/12 17:15:51;;;;;;;12.20;5.40;;;;;;;8.82;51.97;98376.81;248819;1148;114545;-75
2021/03/12 17:20:58;;;;;;;13.80;5.33;;;;;;;8.78;51.83;98381.47;247536;1150;114411;-75
2021/03/12 17:26:08;;;;;;;18.85;5.75;;;;;;;8.71;51.34;98378.36;247540;1155;115675;-74
2021/03/12 17:31:12;;;;;;;14.10;5.23;;;;;;;8.69;51.35;98382.06;247762;1155;115011;-74
2021/03/12 17:36:24;;;;;;;12.35;5.30;;;;;;;8.68;51.76;98385.67;247053;1148;114481;-73
2021/03/12 17:41:31;;;;;;;11.85;6.15;;;;;;;8.64;51.29;98389.48;249534;1148;114319;-73
2021/03/12 17:46:43;;;;;;;15.40;5.50;;;;;;;8.57;51.43;98396.98;250030;1147;114739;-72
2021/03/12 17:51:50;;;;;;;20.30;5.30;;;;;;;8.56;51.24;98402.36;249065;1149;116512;-69
2021/03/12 17:56:57;;;;;;;16.10;5.73;;;;;;;8.51;51.15;98406.17;248466;1150;115091;-71
2021/03/12 18:02:04;;;;;;;14.23;5.65;;;;;;;8.44;51.13;98410.16;250853;1149;114361;-72
2021/03/12 18:07:08;;;;;;;11.87;6.10;;;;;;;8.44;51.45;98411.97;248791;1148;114190;-72
2021/03/12 18:12:12;;;;;;;15.30;5.80;;;;;;;8.39;51.31;98400.78;248564;1150;114404;-72
2021/03/12 18:17:19;;;;;;;20.18;6.93;;;;;;;8.37;51.03;98400.02;250910;1148;114323;-74
2021/03/12 18:22:24;;;;;;;20.40;7.15;;;;;;;8.35;51.24;98402.75;249119;1148;115103;-75
2021/03/12 18:27:35;;;;;;;14.35;6.40;;;;;;;8.35;51.41;98412.50;249149;1148;114524;-74
2021/03/12 18:32:47;;;;;;;14.50;6.00;;;;;;;8.33;51.28;98406.47;248460;1148;115148;-76
2021/03/12 18:37:55;;;;;;;;;;;;;;;8.27;51.41;98408.55;250740;1155;115219;-80
2021/03/12 18:43:03;;;;;;;14.10;6.50;;;;;;;8.22;51.11;98402.69;249449;1148;103146;-76
2021/03/12 18:48:07;;;;;;;16.20;6.93;;;;;;;8.18;50.73;98403.80;251245;1155;114814;-75
2021/03/12 18:53:09;;;;;;;18.10;7.40;;;;;;;8.14;50.82;98404.95;250105;1148;114222;-80
2021/03/12 18:58:12;;;;;;;24.30;8.20;;;;;;;8.11;50.91;98407.79;248045;1156;115487;-77
2021/03/12 19:03:14;;;;;;;22.60;8.40;;;;;;;8.05;51.18;98406.39;249457;1148;114511;-79
2021/03/12 19:08:18;;;;;;;20.80;8.30;;;;;;;7.99;50.84;98408.56;249022;1155;114463;-79
2021/03/12 19:13:21;;;;;;;23.30;8.70;;;;;;;7.91;50.98;98410.81;248342;1148;115537;-83
2021/03/12 19:18:24;;;;;;;20.65;9.00;;;;;;;7.82;50.57;98421.05;249220;1155;114099;-81
2021/03/12 19:23:26;;;;;;;30.60;10.00;;;;;;;7.72;51.15;98421.70;247396;1148;114744;-79
2021/03/12 19:28:28;;;;;;;24.50;10.73;;;;;;;7.58;51.50;98422.53;249047;1147;114838;-78
2021/03/12 19:33:31;;;;;;;26.10;11.50;;;;;;;7.48;51.29;98419.57;249022;1148;115069;-79
2021/03/12 19:38:33;;;;;;;25.90;10.70;;;;;;;7.33;51.33;98428.41;249083;1148;114774;-79
2021/03/12 19:43:36;;;;;;;26.45;10.95;;;;;;;7.15;52.09;98418.91;248114;1148;115104;-79
2021/03/12 19:48:39;;;;;;;30.95;10.60;;;;;;;6.96;51.63;98421.74;248059;1155;114785;-79
2021/03/12 19:53:42;;;;;;;30.23;11.20;;;;;;;6.78;52.03;98423.65;250112;1148;114697;-78
2021/03/12 19:58:44;;;;;;;26.90;11.90;;;;;;;6.60;52.06;98430.83;249561;1149;115264;-79
2021/03/12 20:03:46;;;;;;;44.15;14.50;;;;;;;6.50;52.68;98432.28;249712;1155;115614;-81
2021/03/12 20:08:49;;;;;;;34.47;14.50;;;;;;;6.44;52.65;98437.89;250291;1149;114699;-79
2021/03/12 20:13:52;;;;;;;33.90;13.15;;;;;;;6.49;53.41;98433.19;250353;1149;115242;-79
2021/03/12 20:18:55;;;;;;;28.15;13.20;;;;;;;6.54;52.67;98436.45;248301;1156;115546;-75
2021/03/12 20:23:58;;;;;;;30.17;13.87;;;;;;;6.59;53.17;98440.55;249635;1150;114861;-78
2021/03/12 20:29:00;;;;;;;32.10;14.60;;;;;;;6.55;52.96;98436.35;248965;1148;114492;-80
2021/03/12 20:34:03;;;;;;;33.43;14.47;;;;;;;6.40;53.51;98438.06;249108;1156;116202;-78
2021/03/12 20:39:08;;;;;;;28.85;13.05;;;;;;;6.28;53.05;98433.43;247133;1148;114815;-76
2021/03/12 20:44:11;;;;;;;31.68;15.08;;;;;;;6.18;53.95;98431.38;249164;1148;114833;-77
2021/03/12 20:49:15;;;;;;;33.60;14.20;;;;;;;6.06;53.36;98420.55;249166;1149;114936;-79
2021/03/12 20:54:18;;;;;;;35.07;15.10;;;;;;;5.90;53.67;98428.39;248318;1155;114724;-77
2021/03/12 20:59:22;;;;;;;38.90;15.60;;;;;;;5.75;54.31;98431.00;248602;1148;114762;-77
2021/03/12 21:04:25;;;;;;;41.30;14.60;;;;;;;5.65;53.92;98427.98;250492;1149;114598;-81
2021/03/12 21:09:27;;;;;;;41.00;16.40;;;;;;;5.56;54.51;98423.17;248163;1151;114874;-79
2021/03/12 21:14:30;;;;;;;34.70;14.20;;;;;;;5.51;54.90;98427.84;248227;1148;115642;-78
2021/03/12 21:19:32;;;;;;;41.37;17.23;;;;;;;5.46;54.73;98426.27;248619;1148;115002;-79
2021/03/12 21:24:35;;;;;;;45.90;16.25;;;;;;;5.37;55.51;98426.77;246225;1149;115152;-77
2021/03/12 21:29:37;;;;;;;42.50;17.00;;;;;;;5.27;55.30;98430.80;248674;1148;116086;-79
2021/03/12 21:34:40;;;;;;;42.30;18.50;;;;;;;5.19;55.23;98435.58;248032;1148;114786;-78
2021/03/12 21:39:42;;;;;;;45.10;20.80;;;;;;;5.09;55.55;98426.42;248859;1151;115262;-78
2021/03/12 21:44:45;;;;;;;37.53;18.60;;;;;;;5.00;55.31;98422.48;251466;1149;115222;-77
2021/03/12 21:49:48;;;;;;;45.10;18.13;;;;;;;4.89;55.46;98416.85;251464;1148;114714;-78
2021/03/12 21:54:51;;;;;;;43.78;18.18;;;;;;;4.85;55.64;98418.78;251524;1149;114892;-79
2021/03/12 21:59:53;;;;;;;37.07;17.77;;;;;;;4.83;55.85;98411.91;248941;1149;115228;-79
2021/03/12 22:04:56;;;;;;;34.70;17.13;;;;;;;4.80;55.87;98410.27;250924;1148;114710;-78
2021/03/12 22:09:58;;;;;;;33.73;16.97;;;;;;;4.73;56.11;98411.50;251473;1149;115031;-76
2021/03/12 22:15:02;;;;;;;38.90;17.30;;;;;;;4.65;56.19;98414.51;251497;1156;115335;-78
2021/03/12 22:20:06;;;;;;;39.40;17.63;;;;;;;4.55;56.22;98412.36;251388;1149;114665;-76
2021/03/12 22:25:10;;;;;;;43.98;17.88;;;;;;;4.51;56.39;98415.14;251085;1155;114793;-77
2021/03/12 22:30:21;;;;;;;34.53;17.23;;;;;;;4.42;56.55;98410.33;251480;1149;114873;-77
2021/03/12 22:35:25;;;;;;;38.70;18.20;;;;;;;4.29;56.91;98411.83;251396;1155;115228;-76
2021/03/12 22:40:29;;;;;;;35.05;19.55;;;;;;;4.26;56.52;98410.19;251445;1149;115639;-77
2021/03/12 22:45:32;;;;;;;31.63;16.50;;;;;;;4.19;56.79;98405.28;251408;1156;114973;-76
2021/03/12 22:50:35;;;;;;;32.30;16.08;;;;;;;4.14;56.62;98402.84;251416;1148;114795;-76
2021/03/12 22:55:43;;;;;;;33.30;15.30;;;;;;;4.06;56.91;98398.88;249836;1149;114914;-76
2021/03/12 23:00:45;;;;;;;33.55;15.30;;;;;;;4.03;57.19;98398.07;251417;1151;115002;-76
2021/03/12 23:05:48;;;;;;;33.20;15.55;;;;;;;4.01;57.01;98391.20;251400;1148;115141;-77
2021/03/12 23:10:58;;;;;;;33.80;14.20;;;;;;;3.97;57.53;98390.48;251369;1149;114871;-77
2021/03/12 23:16:00;;;;;;;36.10;14.85;;;;;;;3.98;57.35;98391.33;251459;1156;114860;-77
2021/03/12 23:21:08;;;;;;;34.47;14.47;;;;;;;3.97;57.32;98392.23;251432;1149;114751;-77
2021/03/12 23:26:13;;;;;;;35.00;14.25;;;;;;;3.97;57.38;98387.84;250554;1148;114768;-75
2021/03/12 23:31:16;;;;;;;30.73;13.63;;;;;;;3.95;57.55;98388.84;250332;1149;114949;-76
2021/03/12 23:36:23;;;;;;;33.45;15.25;;;;;;;3.91;57.72;98389.91;247336;1156;114826;-76
2021/03/12 23:41:26;;;;;;;40.27;17.53;;;;;;;3.81;57.50;98391.25;251433;1155;114921;-79
2021/03/12 23:46:28;;;;;;;49.70;20.65;;;;;;;3.75;57.69;98397.63;250570;1156;114746;-79